Aeroporto :
LOGIN :

Iscrizione | Disclaimer

   EN    FR    IT 

 










Sommario :    VFR   VFR Marginale   IFR   IFR Intensivo   IFR Molto Intensivo
Visibilità : 
Base nubi : 
>= 8 km
>= 3000ft
5 / 8 km
1000 / 3000 ft
1500m / 5 km
500 / 1000 ft
800 / 1500m
200 / 500 ft
< 800m
< 200 ft
Simboli :   Temporali  Nebbia  Neve Forte  Precipitazioni Forti  Vento > 20 kt
SIGMETs :   Varie  Temporali  Ghiacco  Turbolenza  Onda orograficha  Ceneri Vulcaniche






- Altitudine del aeroporto : 20 ft
- Codice IATA : DLM


LTBS - Dalaman

ULTIMO METAR :
  • 020150Z 02003KT 9999 FEW030 SCT100 13/13 Q1008 NOSIG RMK RWY19 33003KT

METARs OBSOLETI :
  • 020120Z 09004KT 9999 FEW030 SCT100 13/12 Q1008 NOSIG RMK RWY19 VRB01KT
  • 020050Z 07005KT 9999 FEW030 SCT100 13/12 Q1008 NOSIG RMK RWY19 03002KT
  • 020020Z 09004KT 050V120 9999 FEW030 SCT100 14/13 Q1008 NOSIG RMK RWY19 34005KT
  • 012350Z 06005KT 9999 FEW030 SCT100 14/13 Q1008 NOSIG RMK RWY19 01004KT
  • 012320Z 06005KT 030V100 9999 FEW030 SCT100 13/13 Q1008 NOSIG RMK RWY19 02004KT

TAF TAF LTBS
Valido dal 02 a 00 ore il 03 a 00 ore UTC


012240Z 0200/0224 VRB02KT 9999 SCT030
BECMG 0207/0209 23012KT
PROB30
TEMPO 0213/0217 -TSRA FEW015CB BKN025
BECMG 0216/0218 35009KT
BECMG 0220/0222 CAVOK



MetMap, La meteo Aeronautica in un colpo d'occhio ! - Copyright ORBIFLY Dicembre 2007 - Disclaimer

ORBIFLY MET'MAP TEAM :

Programmazione e sviluppo : Alexandra Zaïnal
Concezione : Baudouin d'Aumeries
Aiuto per la programmazione : Marc-Olivier Méhu
Supporto tecnico e logistico : Manuel Goepfert
Aiuto per la traduzione : Arnaldo La Scala

Contatto : metmap@orbifly.com




FONTI E CREDITI :

   NOAA